Honeycamp, Virginia
Current Conditions -  °F | °C
As of 9:55 AM on Monday 22 Dec 2014 (Local Time) from KLNP Reporting Station
Overcast Overcast  
Wind Chill: 45°   Ceiling: 3300
Heat Index: 45°   Visibility: 10mi
Dew Point: 36°   Wind: 3mph
Humidity: 71%   Direction: 150°SSE
Pressure: 30.04"   Gusts: NA
Location:  37.1698°N, 82.4517°W
Report Text: KLNP 221455Z AUTO 15003KT 10SM SCT028 BKN033 OVC060 07/02 A3004 RMK AO2
Loading
Personal Weather Stations






























Interactive Weather Map New forecast layout! Learn more

10-Day Weather Forecast

Advertisements
Track Severe Weather on mobile